sensor_id;sensor_type;location;lat;lon;timestamp;pressure;altitude;pressure_sealevel;temperature;humidity
71559;BME280;59382;43.852;25.952;2022-09-27T00:00:22;100226.44;;;21.67;53.32
71559;BME280;59382;43.852;25.952;2022-09-27T00:02:47;100231.72;;;21.63;53.30
71559;BME280;59382;43.852;25.952;2022-09-27T00:05:14;100228.69;;;21.65;53.32
71559;BME280;59382;43.852;25.952;2022-09-27T00:07:40;100214.78;;;21.56;53.32
71559;BME280;59382;43.852;25.952;2022-09-27T00:10:06;100227.03;;;21.64;53.19
71559;BME280;59382;43.852;25.952;2022-09-27T00:12:33;100222.13;;;21.61;53.39
71559;BME280;59382;43.852;25.952;2022-09-27T00:14:59;100240.84;;;21.59;53.62
71559;BME280;59382;43.852;25.952;2022-09-27T00:17:25;100242.00;;;21.53;53.95
71559;BME280;59382;43.852;25.952;2022-09-27T00:19:51;100223.09;;;21.51;54.01
71559;BME280;59382;43.852;25.952;2022-09-27T00:22:23;100202.75;;;21.33;54.24
71559;BME280;59382;43.852;25.952;2022-09-27T00:24:49;100214.13;;;21.46;54.19
71559;BME280;59382;43.852;25.952;2022-09-27T00:27:15;100194.28;;;21.49;54.02
71559;BME280;59382;43.852;25.952;2022-09-27T00:29:42;100184.41;;;21.48;53.99
71559;BME280;59382;43.852;25.952;2022-09-27T00:32:08;100189.25;;;21.56;53.83
71559;BME280;59382;43.852;25.952;2022-09-27T00:34:33;100173.38;;;21.53;53.68
71559;BME280;59382;43.852;25.952;2022-09-27T00:36:59;100180.44;;;21.59;53.81
71559;BME280;59382;43.852;25.952;2022-09-27T00:39:25;100173.28;;;21.58;53.66
71559;BME280;59382;43.852;25.952;2022-09-27T00:41:50;100185.84;;;21.64;53.42
71559;BME280;59382;43.852;25.952;2022-09-27T00:50:02;100185.78;;;21.69;53.23
71559;BME280;59382;43.852;25.952;2022-09-27T00:54:57;100151.84;;;21.60;52.90
71559;BME280;59382;43.852;25.952;2022-09-27T00:57:25;100149.94;;;21.60;52.82
71559;BME280;59382;43.852;25.952;2022-09-27T01:00:14;100159.50;;;21.63;52.97
71559;BME280;59382;43.852;25.952;2022-09-27T01:02:43;100165.81;;;21.63;53.00
71559;BME280;59382;43.852;25.952;2022-09-27T01:05:10;100153.47;;;21.61;53.05
71559;BME280;59382;43.852;25.952;2022-09-27T01:07:37;100153.47;;;21.61;53.53
71559;BME280;59382;43.852;25.952;2022-09-27T01:10:03;100145.84;;;21.58;53.62
71559;BME280;59382;43.852;25.952;2022-09-27T01:12:55;100143.38;;;21.56;53.90
71559;BME280;59382;43.852;25.952;2022-09-27T01:15:28;100142.00;;;21.59;53.88
71559;BME280;59382;43.852;25.952;2022-09-27T01:18:24;100153.56;;;21.56;54.21
71559;BME280;59382;43.852;25.952;2022-09-27T01:21:12;100159.66;;;21.53;54.78
71559;BME280;59382;43.852;25.952;2022-09-27T01:26:51;100172.13;;;21.45;54.97
71559;BME280;59382;43.852;25.952;2022-09-27T01:32:41;100177.59;;;21.45;55.06
71559;BME280;59382;43.852;25.952;2022-09-27T01:35:22;100177.81;;;21.49;54.91
71559;BME280;59382;43.852;25.952;2022-09-27T01:38:33;100167.94;;;21.48;54.90
71559;BME280;59382;43.852;25.952;2022-09-27T01:41:14;100164.09;;;21.49;54.74
71559;BME280;59382;43.852;25.952;2022-09-27T01:43:53;100164.63;;;21.51;54.72
71559;BME280;59382;43.852;25.952;2022-09-27T01:46:28;100130.25;;;21.34;54.84
71559;BME280;59382;43.852;25.952;2022-09-27T01:48:59;100145.56;;;21.41;54.88
71559;BME280;59382;43.852;25.952;2022-09-27T01:51:34;100165.22;;;21.48;55.02
71559;BME280;59382;43.852;25.952;2022-09-27T01:54:04;100155.66;;;21.45;55.11
71559;BME280;59382;43.852;25.952;2022-09-27T01:56:36;100149.91;;;21.42;55.27
71559;BME280;59382;43.852;25.952;2022-09-27T01:59:17;100127.38;;;21.26;55.19
71559;BME280;59382;43.852;25.952;2022-09-27T02:01:48;100153.25;;;21.38;55.37
71559;BME280;59382;43.852;25.952;2022-09-27T02:04:20;100147.75;;;21.38;55.45
71559;BME280;59382;43.852;25.952;2022-09-27T02:06:51;100142.06;;;21.35;55.37
71559;BME280;59382;43.852;25.952;2022-09-27T02:09:33;100142.06;;;21.35;55.49
71559;BME280;59382;43.852;25.952;2022-09-27T02:12:04;100146.69;;;21.40;55.48
71559;BME280;59382;43.852;25.952;2022-09-27T02:14:49;100143.34;;;21.43;55.89
71559;BME280;59382;43.852;25.952;2022-09-27T02:19:53;100135.00;;;21.48;55.53
71559;BME280;59382;43.852;25.952;2022-09-27T02:22:37;100107.28;;;21.30;55.54
71559;BME280;59382;43.852;25.952;2022-09-27T02:30:43;100111.63;;;21.50;55.18
71559;BME280;59382;43.852;25.952;2022-09-27T02:33:09;100108.88;;;21.50;55.40
71559;BME280;59382;43.852;25.952;2022-09-27T02:35:35;100111.63;;;21.50;55.39
71559;BME280;59382;43.852;25.952;2022-09-27T02:38:02;100108.88;;;21.50;55.35
71559;BME280;59382;43.852;25.952;2022-09-27T02:40:34;100101.03;;;21.44;55.33
71559;BME280;59382;43.852;25.952;2022-09-27T02:43:02;100110.84;;;21.50;55.51
71559;BME280;59382;43.852;25.952;2022-09-27T02:45:40;100119.38;;;21.48;55.55
71559;BME280;59382;43.852;25.952;2022-09-27T03:04:51;100098.81;;;21.46;55.61
71559;BME280;59382;43.852;25.952;2022-09-27T03:07:18;100090.06;;;21.44;55.34
71559;BME280;59382;43.852;25.952;2022-09-27T03:09:47;100089.03;;;21.40;55.40
71559;BME280;59382;43.852;25.952;2022-09-27T03:12:14;100112.03;;;21.44;55.34
71559;BME280;59382;43.852;25.952;2022-09-27T03:14:45;100102.47;;;21.41;55.44
71559;BME280;59382;43.852;25.952;2022-09-27T03:17:11;100109.34;;;21.38;55.49
71559;BME280;59382;43.852;25.952;2022-09-27T03:19:36;100109.34;;;21.38;55.48
71559;BME280;59382;43.852;25.952;2022-09-27T03:22:02;100110.47;;;21.38;55.55
71559;BME280;59382;43.852;25.952;2022-09-27T03:24:27;100100.38;;;21.33;55.62
71559;BME280;59382;43.852;25.952;2022-09-27T03:26:53;100097.09;;;21.31;55.41
71559;BME280;59382;43.852;25.952;2022-09-27T03:29:19;100108.91;;;21.31;55.32
71559;BME280;59382;43.852;25.952;2022-09-27T03:31:45;100096.38;;;21.25;55.38
71559;BME280;59382;43.852;25.952;2022-09-27T03:34:10;100098.50;;;21.28;55.45
71559;BME280;59382;43.852;25.952;2022-09-27T03:36:36;100088.97;;;21.26;55.42
71559;BME280;59382;43.852;25.952;2022-09-27T03:39:01;100090.34;;;21.23;55.49
71559;BME280;59382;43.852;25.952;2022-09-27T03:41:27;100089.00;;;21.21;55.51
71559;BME280;59382;43.852;25.952;2022-09-27T03:43:52;100077.31;;;21.15;55.59
71559;BME280;59382;43.852;25.952;2022-09-27T03:46:20;100073.50;;;21.11;55.56
71559;BME280;59382;43.852;25.952;2022-09-27T03:48:46;100102.50;;;21.17;55.70
71559;BME280;59382;43.852;25.952;2022-09-27T03:51:11;100090.34;;;21.05;55.92
71559;BME280;59382;43.852;25.952;2022-09-27T03:53:37;100073.75;;;20.96;55.93
71559;BME280;59382;43.852;25.952;2022-09-27T03:56:03;100072.03;;;21.00;56.16
71559;BME280;59382;43.852;25.952;2022-09-27T03:58:28;100070.06;;;21.01;56.20
71559;BME280;59382;43.852;25.952;2022-09-27T04:00:54;100071.50;;;20.98;56.20
71559;BME280;59382;43.852;25.952;2022-09-27T04:03:19;100087.06;;;21.03;56.12
71559;BME280;59382;43.852;25.952;2022-09-27T04:05:45;100090.63;;;21.03;56.23
71559;BME280;59382;43.852;25.952;2022-09-27T04:08:11;100076.78;;;20.95;56.42
71559;BME280;59382;43.852;25.952;2022-09-27T04:10:37;100081.44;;;20.94;56.47
71559;BME280;59382;43.852;25.952;2022-09-27T04:13:04;100082.56;;;20.88;56.46
71559;BME280;59382;43.852;25.952;2022-09-27T04:15:30;100087.47;;;20.91;56.52
71559;BME280;59382;43.852;25.952;2022-09-27T04:17:55;100059.72;;;20.74;56.68
71559;BME280;59382;43.852;25.952;2022-09-27T04:20:21;100088.53;;;20.95;56.47
71559;BME280;59382;43.852;25.952;2022-09-27T04:22:46;100077.09;;;20.88;56.50
71559;BME280;59382;43.852;25.952;2022-09-27T04:25:12;100083.06;;;20.95;56.51
71559;BME280;59382;43.852;25.952;2022-09-27T04:27:45;100083.88;;;20.96;56.52
71559;BME280;59382;43.852;25.952;2022-09-27T04:30:11;100076.97;;;20.98;56.46
71559;BME280;59382;43.852;25.952;2022-09-27T04:32:41;100057.28;;;20.96;56.63
71559;BME280;59382;43.852;25.952;2022-09-27T04:35:08;100066.84;;;20.99;56.56
71559;BME280;59382;43.852;25.952;2022-09-27T04:37:53;100035.56;;;20.76;56.68
71559;BME280;59382;43.852;25.952;2022-09-27T04:40:18;100057.84;;;20.93;56.48
71559;BME280;59382;43.852;25.952;2022-09-27T04:42:47;100040.91;;;20.86;56.62
71559;BME280;59382;43.852;25.952;2022-09-27T04:45:12;100038.09;;;20.91;56.59
71559;BME280;59382;43.852;25.952;2022-09-27T04:47:48;100036.97;;;20.92;56.96
71559;BME280;59382;43.852;25.952;2022-09-27T04:50:14;100047.09;;;20.97;56.80
71559;BME280;59382;43.852;25.952;2022-09-27T04:52:40;100023.28;;;20.92;56.81
71559;BME280;59382;43.852;25.952;2022-09-27T04:55:07;100015.59;;;20.94;56.95
71559;BME280;59382;43.852;25.952;2022-09-27T04:57:33;100001.31;;;20.92;56.98
71559;BME280;59382;43.852;25.952;2022-09-27T04:59:59;99997.50;;;20.93;57.16
71559;BME280;59382;43.852;25.952;2022-09-27T05:02:26;100001.03;;;20.94;57.28
71559;BME280;59382;43.852;25.952;2022-09-27T05:04:52;100002.44;;;20.91;57.30
71559;BME280;59382;43.852;25.952;2022-09-27T05:07:20;99999.72;;;20.91;57.36
71559;BME280;59382;43.852;25.952;2022-09-27T05:09:48;100005.19;;;20.91;57.80
71559;BME280;59382;43.852;25.952;2022-09-27T05:12:14;100003.09;;;20.83;57.81
71559;BME280;59382;43.852;25.952;2022-09-27T05:14:40;100004.53;;;20.81;58.40
71559;BME280;59382;43.852;25.952;2022-09-27T05:17:05;100001.09;;;20.70;58.54
71559;BME280;59382;43.852;25.952;2022-09-27T05:19:35;99979.38;;;20.55;58.75
71559;BME280;59382;43.852;25.952;2022-09-27T05:22:02;100013.09;;;20.74;59.03
71559;BME280;59382;43.852;25.952;2022-09-27T05:24:28;100005.94;;;20.78;59.18
71559;BME280;59382;43.852;25.952;2022-09-27T05:26:57;100005.34;;;20.81;59.00
71559;BME280;59382;43.852;25.952;2022-09-27T05:29:23;100006.38;;;20.85;59.05
71559;BME280;59382;43.852;25.952;2022-09-27T05:31:49;100015.34;;;20.91;59.23
71559;BME280;59382;43.852;25.952;2022-09-27T05:34:15;99988.91;;;20.81;59.57
71559;BME280;59382;43.852;25.952;2022-09-27T05:36:48;100009.06;;;20.90;59.40
71559;BME280;59382;43.852;25.952;2022-09-27T05:39:13;100019.44;;;20.93;59.33
71559;BME280;59382;43.852;25.952;2022-09-27T05:41:44;100011.28;;;20.88;59.41
71559;BME280;59382;43.852;25.952;2022-09-27T05:44:10;100017.78;;;20.92;59.54
71559;BME280;59382;43.852;25.952;2022-09-27T05:46:38;100022.47;;;20.92;59.72
71559;BME280;59382;43.852;25.952;2022-09-27T05:49:04;100003.69;;;20.80;59.96
71559;BME280;59382;43.852;25.952;2022-09-27T05:51:30;100009.34;;;20.89;60.04
71559;BME280;59382;43.852;25.952;2022-09-27T05:53:55;100017.78;;;20.92;60.28
71559;BME280;59382;43.852;25.952;2022-09-27T05:56:21;100015.13;;;20.87;60.02
71559;BME280;59382;43.852;25.952;2022-09-27T05:58:47;100021.66;;;20.91;60.16
71559;BME280;59382;43.852;25.952;2022-09-27T06:01:12;100017.78;;;20.92;60.14
71559;BME280;59382;43.852;25.952;2022-09-27T06:03:38;100026.19;;;21.01;60.25
71559;BME280;59382;43.852;25.952;2022-09-27T06:06:05;100012.81;;;20.99;60.25
71559;BME280;59382;43.852;25.952;2022-09-27T06:08:33;99996.94;;;20.96;60.31
71559;BME280;59382;43.852;25.952;2022-09-27T06:11:03;100015.28;;;21.14;60.07
71559;BME280;59382;43.852;25.952;2022-09-27T06:13:30;99998.84;;;21.14;60.09
71559;BME280;59382;43.852;25.952;2022-09-27T06:15:56;100009.22;;;21.17;60.05
71559;BME280;59382;43.852;25.952;2022-09-27T06:18:24;99994.53;;;21.08;59.78
71559;BME280;59382;43.852;25.952;2022-09-27T06:20:50;100010.28;;;21.21;59.80
71559;BME280;59382;43.852;25.952;2022-09-27T06:23:18;100010.78;;;21.23;59.97
71559;BME280;59382;43.852;25.952;2022-09-27T06:25:44;100020.84;;;21.28;60.19
71559;BME280;59382;43.852;25.952;2022-09-27T06:28:11;100036.00;;;21.25;60.14
71559;BME280;59382;43.852;25.952;2022-09-27T06:30:46;100037.41;;;21.23;60.26
71559;BME280;59382;43.852;25.952;2022-09-27T06:33:15;100029.69;;;21.25;59.98
71559;BME280;59382;43.852;25.952;2022-09-27T06:35:41;100020.41;;;21.21;59.84
71559;BME280;59382;43.852;25.952;2022-09-27T06:38:09;100015.16;;;21.24;59.74
71559;BME280;59382;43.852;25.952;2022-09-27T06:40:35;100018.41;;;21.26;59.72
71559;BME280;59382;43.852;25.952;2022-09-27T06:43:05;100025.97;;;21.34;59.73
71559;BME280;59382;43.852;25.952;2022-09-27T06:45:32;100035.03;;;21.35;59.57
71559;BME280;59382;43.852;25.952;2022-09-27T06:48:03;100021.09;;;21.31;59.60
71559;BME280;59382;43.852;25.952;2022-09-27T06:50:35;99993.22;;;21.24;59.80
71559;BME280;59382;43.852;25.952;2022-09-27T06:53:01;99986.06;;;21.23;59.60
71559;BME280;59382;43.852;25.952;2022-09-27T06:55:27;99992.16;;;21.20;59.66
71559;BME280;59382;43.852;25.952;2022-09-27T06:57:57;100000.56;;;21.29;59.76
71559;BME280;59382;43.852;25.952;2022-09-27T07:00:42;99988.91;;;21.18;59.69
71559;BME280;59382;43.852;25.952;2022-09-27T07:03:09;100003.59;;;21.27;59.66
71559;BME280;59382;43.852;25.952;2022-09-27T07:05:39;100012.91;;;21.26;59.99
71559;BME280;59382;43.852;25.952;2022-09-27T07:08:11;100020.66;;;21.24;59.95
71559;BME280;59382;43.852;25.952;2022-09-27T07:10:38;100019.00;;;21.23;60.02
71559;BME280;59382;43.852;25.952;2022-09-27T07:15:30;100010.69;;;21.28;59.77
71559;BME280;59382;43.852;25.952;2022-09-27T07:17:59;100010.34;;;21.35;59.79
71559;BME280;59382;43.852;25.952;2022-09-27T07:20:25;100003.00;;;21.30;59.67
71559;BME280;59382;43.852;25.952;2022-09-27T07:22:51;99991.63;;;21.37;59.68
71559;BME280;59382;43.852;25.952;2022-09-27T07:25:18;99998.06;;;21.46;59.53
71559;BME280;59382;43.852;25.952;2022-09-27T07:27:43;99991.13;;;21.49;59.60
71559;BME280;59382;43.852;25.952;2022-09-27T07:30:10;99994.22;;;21.61;59.60
71559;BME280;59382;43.852;25.952;2022-09-27T07:32:37;100001.88;;;21.64;59.39
71559;BME280;59382;43.852;25.952;2022-09-27T07:35:04;99996.16;;;21.79;59.56
71559;BME280;59382;43.852;25.952;2022-09-27T07:37:34;99963.44;;;21.64;59.52
71559;BME280;59382;43.852;25.952;2022-09-27T07:40:01;99980.09;;;21.86;59.46
71559;BME280;59382;43.852;25.952;2022-09-27T07:42:28;99982.25;;;21.89;59.64
71559;BME280;59382;43.852;25.952;2022-09-27T07:44:54;99954.47;;;21.77;59.51
71559;BME280;59382;43.852;25.952;2022-09-27T07:47:21;99967.38;;;21.90;59.71
71559;BME280;59382;43.852;25.952;2022-09-27T07:49:49;99953.13;;;21.88;59.24
71559;BME280;59382;43.852;25.952;2022-09-27T07:52:17;99969.72;;;21.96;59.46
71559;BME280;59382;43.852;25.952;2022-09-27T07:54:44;99968.63;;;21.97;59.61
71559;BME280;59382;43.852;25.952;2022-09-27T07:57:10;99959.03;;;21.95;59.27
71559;BME280;59382;43.852;25.952;2022-09-27T07:59:36;99961.47;;;21.96;59.39
71559;BME280;59382;43.852;25.952;2022-09-27T08:02:02;99976.97;;;22.06;59.64
71559;BME280;59382;43.852;25.952;2022-09-27T08:04:28;99968.41;;;22.07;59.44
71559;BME280;59382;43.852;25.952;2022-09-27T08:06:54;99977.97;;;22.10;59.73
71559;BME280;59382;43.852;25.952;2022-09-27T08:09:20;99975.84;;;22.07;59.73
71559;BME280;59382;43.852;25.952;2022-09-27T08:11:45;100002.22;;;22.08;59.94
71559;BME280;59382;43.852;25.952;2022-09-27T08:14:11;100006.88;;;22.07;60.00
71559;BME280;59382;43.852;25.952;2022-09-27T08:16:37;100012.69;;;22.06;60.09
71559;BME280;59382;43.852;25.952;2022-09-27T08:19:03;100022.13;;;22.00;60.42
71559;BME280;59382;43.852;25.952;2022-09-27T08:21:28;99993.63;;;21.82;60.53
71559;BME280;59382;43.852;25.952;2022-09-27T08:23:55;100022.31;;;21.90;60.57
71559;BME280;59382;43.852;25.952;2022-09-27T08:26:21;100036.06;;;21.90;60.73
71559;BME280;59382;43.852;25.952;2022-09-27T08:28:47;100036.13;;;21.85;60.92
71559;BME280;59382;43.852;25.952;2022-09-27T08:31:13;100023.16;;;21.72;61.17
71559;BME280;59382;43.852;25.952;2022-09-27T08:33:39;100013.91;;;21.68;61.54
71559;BME280;59382;43.852;25.952;2022-09-27T08:36:11;100014.06;;;21.58;61.53
71559;BME280;59382;43.852;25.952;2022-09-27T08:38:37;100010.81;;;21.56;61.31
71559;BME280;59382;43.852;25.952;2022-09-27T08:41:11;100015.19;;;21.57;61.72
71559;BME280;59382;43.852;25.952;2022-09-27T08:49:35;100011.78;;;21.46;61.51
71559;BME280;59382;43.852;25.952;2022-09-27T08:52:05;100011.00;;;21.46;61.35
71559;BME280;59382;43.852;25.952;2022-09-27T08:54:34;100022.41;;;21.53;61.58
71559;BME280;59382;43.852;25.952;2022-09-27T08:57:03;100001.03;;;21.50;61.55
71559;BME280;59382;43.852;25.952;2022-09-27T08:59:34;99997.59;;;21.58;61.61
71559;BME280;59382;43.852;25.952;2022-09-27T09:02:04;99993.56;;;21.69;61.28
71559;BME280;59382;43.852;25.952;2022-09-27T09:04:39;99992.91;;;21.77;60.91
71559;BME280;59382;43.852;25.952;2022-09-27T09:13:17;99985.50;;;21.91;60.44
71559;BME280;59382;43.852;25.952;2022-09-27T09:24:21;99955.47;;;21.81;60.73
71559;BME280;59382;43.852;25.952;2022-09-27T09:35:06;99935.25;;;21.77;60.52
71559;BME280;59382;43.852;25.952;2022-09-27T09:37:55;99943.06;;;21.97;60.45
71559;BME280;59382;43.852;25.952;2022-09-27T09:43:19;99955.78;;;21.93;60.32
71559;BME280;59382;43.852;25.952;2022-09-27T09:45:52;99956.72;;;22.02;60.18
71559;BME280;59382;43.852;25.952;2022-09-27T09:51:05;99952.16;;;22.11;60.14
71559;BME280;59382;43.852;25.952;2022-09-27T09:53:54;99959.78;;;22.14;60.58
71559;BME280;59382;43.852;25.952;2022-09-27T09:56:26;99960.88;;;22.13;60.46
71559;BME280;59382;43.852;25.952;2022-09-27T09:58:59;99951.09;;;22.07;60.70
71559;BME280;59382;43.852;25.952;2022-09-27T10:01:45;99949.50;;;22.06;60.72
71559;BME280;59382;43.852;25.952;2022-09-27T10:04:21;99947.44;;;21.98;60.65
71559;BME280;59382;43.852;25.952;2022-09-27T10:06:48;99958.66;;;22.01;60.72
71559;BME280;59382;43.852;25.952;2022-09-27T10:09:21;99933.91;;;21.88;60.49
71559;BME280;59382;43.852;25.952;2022-09-27T10:11:48;99916.13;;;21.99;60.40
71559;BME280;59382;43.852;25.952;2022-09-27T10:14:16;99932.41;;;22.09;60.37
71559;BME280;59382;43.852;25.952;2022-09-27T10:16:46;99924.66;;;22.11;60.26
71559;BME280;59382;43.852;25.952;2022-09-27T10:19:19;99926.28;;;22.12;60.17
71559;BME280;59382;43.852;25.952;2022-09-27T10:21:50;99927.28;;;22.16;60.14
71559;BME280;59382;43.852;25.952;2022-09-27T10:24:17;99915.59;;;22.24;60.08
71559;BME280;59382;43.852;25.952;2022-09-27T10:26:45;99912.84;;;22.24;60.04
71559;BME280;59382;43.852;25.952;2022-09-27T10:31:55;99902.97;;;22.36;59.78
71559;BME280;59382;43.852;25.952;2022-09-27T10:34:34;99893.69;;;22.32;59.65
71559;BME280;59382;43.852;25.952;2022-09-27T10:39:40;99901.13;;;22.32;59.56
71559;BME280;59382;43.852;25.952;2022-09-27T10:42:37;99916.91;;;22.40;59.61
71559;BME280;59382;43.852;25.952;2022-09-27T10:45:26;99901.72;;;22.42;59.59
71559;BME280;59382;43.852;25.952;2022-09-27T10:47:53;99873.53;;;22.37;59.29
71559;BME280;59382;43.852;25.952;2022-09-27T10:50:31;99875.78;;;22.35;59.38
71559;BME280;59382;43.852;25.952;2022-09-27T10:53:15;99869.38;;;22.39;59.23
71559;BME280;59382;43.852;25.952;2022-09-27T10:55:49;99876.78;;;22.39;59.25
71559;BME280;59382;43.852;25.952;2022-09-27T10:58:33;99915.16;;;22.44;59.43
71559;BME280;59382;43.852;25.952;2022-09-27T11:01:03;99904.66;;;22.46;59.34
71559;BME280;59382;43.852;25.952;2022-09-27T11:03:31;99893.16;;;22.44;59.49
71559;BME280;59382;43.852;25.952;2022-09-27T11:05:58;99907.72;;;22.58;59.56
71559;BME280;59382;43.852;25.952;2022-09-27T11:08:31;99886.97;;;22.52;59.63
71559;BME280;59382;43.852;25.952;2022-09-27T11:13:29;99906.91;;;22.57;59.55
71559;BME280;59382;43.852;25.952;2022-09-27T11:38:29;99874.53;;;22.41;59.48
71559;BME280;59382;43.852;25.952;2022-09-27T11:46:36;99881.84;;;22.59;59.04
71559;BME280;59382;43.852;25.952;2022-09-27T11:49:37;99872.34;;;22.65;58.88
71559;BME280;59382;43.852;25.952;2022-09-27T12:00:18;99885.38;;;22.95;58.10
71559;BME280;59382;43.852;25.952;2022-09-27T12:05:54;99882.63;;;22.95;57.54
71559;BME280;59382;43.852;25.952;2022-09-27T12:11:18;99873.38;;;22.91;57.48
71559;BME280;59382;43.852;25.952;2022-09-27T12:13:49;99882.53;;;23.00;57.47
71559;BME280;59382;43.852;25.952;2022-09-27T12:16:18;99880.25;;;23.02;57.39
71559;BME280;59382;43.852;25.952;2022-09-27T12:18:46;99864.50;;;22.94;57.28
71559;BME280;59382;43.852;25.952;2022-09-27T12:21:13;99871.53;;;23.00;57.27
71559;BME280;59382;43.852;25.952;2022-09-27T12:23:49;99869.25;;;23.02;57.24
71559;BME280;59382;43.852;25.952;2022-09-27T12:26:44;99873.75;;;22.98;57.38
71559;BME280;59382;43.852;25.952;2022-09-27T12:29:14;99866.94;;;22.95;57.22
71559;BME280;59382;43.852;25.952;2022-09-27T12:31:50;99878.28;;;22.94;57.24
71559;BME280;59382;43.852;25.952;2022-09-27T12:40:20;99864.88;;;22.79;56.98
71559;BME280;59382;43.852;25.952;2022-09-27T12:42:51;99859.38;;;22.79;57.07
71559;BME280;59382;43.852;25.952;2022-09-27T12:51:11;99839.56;;;22.68;57.09
71559;BME280;59382;43.852;25.952;2022-09-27T13:02:06;99852.88;;;22.75;57.13
71559;BME280;59382;43.852;25.952;2022-09-27T13:07:55;99818.38;;;22.69;57.10
71559;BME280;59382;43.852;25.952;2022-09-27T13:13:09;99832.38;;;22.81;57.03
71559;BME280;59382;43.852;25.952;2022-09-27T13:15:37;99805.97;;;22.80;57.19
71559;BME280;59382;43.852;25.952;2022-09-27T13:18:16;99799.69;;;22.79;57.44
71559;BME280;59382;43.852;25.952;2022-09-27T13:20:51;99796.75;;;22.76;57.57
71559;BME280;59382;43.852;25.952;2022-09-27T13:30:54;99777.50;;;22.76;57.91
71559;BME280;59382;43.852;25.952;2022-09-27T13:38:30;99792.84;;;22.77;58.21
71559;BME280;59382;43.852;25.952;2022-09-27T13:41:16;99805.00;;;22.76;58.56
71559;BME280;59382;43.852;25.952;2022-09-27T13:44:05;99814.84;;;22.77;58.55
71559;BME280;59382;43.852;25.952;2022-09-27T13:46:35;99796.84;;;22.71;58.67
71559;BME280;59382;43.852;25.952;2022-09-27T13:49:20;99792.38;;;22.75;58.95
71559;BME280;59382;43.852;25.952;2022-09-27T13:51:51;99788.06;;;22.82;58.68
71559;BME280;59382;43.852;25.952;2022-09-27T13:54:54;99792.94;;;22.85;58.69
71559;BME280;59382;43.852;25.952;2022-09-27T14:00:26;99798.97;;;22.96;58.17
71559;BME280;59382;43.852;25.952;2022-09-27T14:05:46;99778.41;;;22.93;58.23
71559;BME280;59382;43.852;25.952;2022-09-27T14:08:35;99789.22;;;22.90;58.21
71559;BME280;59382;43.852;25.952;2022-09-27T14:11:03;99796.38;;;22.91;58.29
71559;BME280;59382;43.852;25.952;2022-09-27T14:13:36;99783.34;;;22.83;58.28
71559;BME280;59382;43.852;25.952;2022-09-27T14:16:03;99795.09;;;22.97;58.17
71559;BME280;59382;43.852;25.952;2022-09-27T14:18:31;99780.84;;;22.95;58.15
71559;BME280;59382;43.852;25.952;2022-09-27T14:21:25;99781.28;;;22.88;58.27
71559;BME280;59382;43.852;25.952;2022-09-27T14:23:52;99785.97;;;22.88;58.21
71559;BME280;59382;43.852;25.952;2022-09-27T14:26:25;99764.41;;;22.81;58.27
71559;BME280;59382;43.852;25.952;2022-09-27T14:28:51;99769.28;;;22.84;58.38
71559;BME280;59382;43.852;25.952;2022-09-27T14:33:44;99772.34;;;22.83;58.35
71559;BME280;59382;43.852;25.952;2022-09-27T14:36:25;99778.84;;;22.87;58.38
71559;BME280;59382;43.852;25.952;2022-09-27T14:39:15;99773.34;;;22.87;58.53
71559;BME280;59382;43.852;25.952;2022-09-27T14:41:48;99757.72;;;22.74;58.53
71559;BME280;59382;43.852;25.952;2022-09-27T14:44:18;99761.19;;;22.79;58.68
71559;BME280;59382;43.852;25.952;2022-09-27T14:46:46;99745.94;;;22.73;58.68
71559;BME280;59382;43.852;25.952;2022-09-27T14:49:22;99741.84;;;22.71;58.69
71559;BME280;59382;43.852;25.952;2022-09-27T14:51:53;99736.34;;;22.71;58.71
71559;BME280;59382;43.852;25.952;2022-09-27T14:54:21;99746.25;;;22.72;58.73
71559;BME280;59382;43.852;25.952;2022-09-27T14:56:49;99741.69;;;22.67;58.85
71559;BME280;59382;43.852;25.952;2022-09-27T14:59:29;99743.50;;;22.72;59.08
71559;BME280;59382;43.852;25.952;2022-09-27T15:02:02;99756.13;;;22.73;58.97
71559;BME280;59382;43.852;25.952;2022-09-27T15:04:34;99755.91;;;22.69;58.98
71559;BME280;59382;43.852;25.952;2022-09-27T15:07:01;99762.44;;;22.73;59.13
71559;BME280;59382;43.852;25.952;2022-09-27T15:09:27;99752.84;;;22.71;59.17
71559;BME280;59382;43.852;25.952;2022-09-27T15:11:59;99763.22;;;22.74;59.06
71559;BME280;59382;43.852;25.952;2022-09-27T15:14:27;99773.59;;;22.77;59.42
71559;BME280;59382;43.852;25.952;2022-09-27T15:16:55;99764.47;;;22.68;59.48
71559;BME280;59382;43.852;25.952;2022-09-27T15:19:29;99779.25;;;22.72;59.60
71559;BME280;59382;43.852;25.952;2022-09-27T15:21:55;99754.63;;;22.67;59.81
71559;BME280;59382;43.852;25.952;2022-09-27T15:24:44;99773.75;;;22.72;60.07
71559;BME280;59382;43.852;25.952;2022-09-27T15:27:21;99759.25;;;22.58;59.88
71559;BME280;59382;43.852;25.952;2022-09-27T15:29:53;99770.13;;;22.63;59.87
71559;BME280;59382;43.852;25.952;2022-09-27T15:32:25;99777.44;;;22.67;59.94
71559;BME280;59382;43.852;25.952;2022-09-27T15:34:52;99773.50;;;22.60;60.13
71559;BME280;59382;43.852;25.952;2022-09-27T15:37:36;99762.22;;;22.48;60.68
71559;BME280;59382;43.852;25.952;2022-09-27T15:43:00;99780.63;;;22.47;60.72
71559;BME280;59382;43.852;25.952;2022-09-27T15:45:34;99779.50;;;22.48;60.56
71559;BME280;59382;43.852;25.952;2022-09-27T15:48:12;99783.38;;;22.47;60.45
71559;BME280;59382;43.852;25.952;2022-09-27T15:50:39;99791.94;;;22.46;60.33
71559;BME280;59382;43.852;25.952;2022-09-27T15:53:06;99796.31;;;22.47;60.22
71559;BME280;59382;43.852;25.952;2022-09-27T15:55:39;99770.06;;;22.41;60.35
71559;BME280;59382;43.852;25.952;2022-09-27T15:58:19;99771.88;;;22.45;60.59